Time;durP1;ratioP1;P1;durP2;ratioP2;P2;SDS_P1;SDS_P2;PMS_P1;PMS_P2;Temp;Humidity;BMP_temperature;BMP_pressure;BME280_temperature;BME280_humidity;BME280_pressure;Samples;Min_cycle;Max_cycle;Signal;HPM_P1;HPM_P2
2022/05/27 00:02:15;;;;;;;12.90;11.48;;;15.20;99.90;;;;;;5033425;28;20029;-70
2022/05/27 00:04:42;;;;;;;17.23;11.90;;;15.50;99.90;;;;;;5028258;28;20441;-70
2022/05/27 00:07:10;;;;;;;13.25;10.95;;;15.50;99.90;;;;;;5014212;28;20095;-70
2022/05/27 00:09:37;;;;;;;13.48;10.35;;;15.50;99.90;;;;;;5024410;28;20053;-70
2022/05/27 00:12:05;;;;;;;14.48;11.98;;;15.60;99.90;;;;;;5032282;28;20033;-71
2022/05/27 00:14:32;;;;;;;18.35;12.10;;;15.70;99.90;;;;;;5021347;28;20017;-71
2022/05/27 00:16:59;;;;;;;17.38;11.70;;;15.80;99.90;;;;;;5020906;28;20038;-71
2022/05/27 00:19:27;;;;;;;14.75;10.95;;;16.00;99.90;;;;;;5014575;28;20022;-70
2022/05/27 00:21:54;;;;;;;14.30;11.38;;;16.10;99.90;;;;;;5025109;28;20026;-71
2022/05/27 00:24:21;;;;;;;15.23;11.30;;;16.10;99.90;;;;;;5029635;28;20026;-71
2022/05/27 00:26:49;;;;;;;15.13;11.45;;;16.10;99.90;;;;;;5018656;28;20071;-70
2022/05/27 00:29:16;;;;;;;15.57;11.18;;;16.10;99.90;;;;;;5019438;28;20024;-70
2022/05/27 00:31:43;;;;;;;16.65;11.90;;;16.30;99.90;;;;;;5017765;28;20025;-71
2022/05/27 00:34:10;;;;;;;16.58;11.50;;;16.30;99.90;;;;;;5019927;28;20041;-71
2022/05/27 00:36:38;;;;;;;18.45;11.65;;;16.50;99.90;;;;;;5020040;28;20022;-71
2022/05/27 00:39:05;;;;;;;15.95;10.55;;;16.40;99.90;;;;;;5023633;28;20025;-70
2022/05/27 00:41:33;;;;;;;18.92;11.98;;;16.50;99.90;;;;;;5020643;28;20033;-71
2022/05/27 00:44:00;;;;;;;15.45;9.75;;;16.70;99.90;;;;;;5023280;28;20025;-72
2022/05/27 00:46:32;;;;;;;13.82;10.25;;;16.80;99.90;;;;;;5022206;28;20534;-71
2022/05/27 00:49:16;;;;;;;14.63;10.88;;;16.70;99.90;;;;;;5031024;28;20389;-71
2022/05/27 00:52:11;;;;;;;14.65;10.90;;;16.70;99.90;;;;;;5028423;28;20540;-71
2022/05/27 00:54:40;;;;;;;15.05;10.02;;;16.80;99.90;;;;;;5020393;28;20060;-72
2022/05/27 00:57:18;;;;;;;15.57;9.48;;;16.90;99.90;;;;;;5024727;28;20563;-71
2022/05/27 00:59:54;;;;;;;11.25;9.45;;;17.00;99.90;;;;;;5020682;28;20123;-71
2022/05/27 01:02:25;;;;;;;14.57;9.20;;;17.20;99.90;;;;;;5021124;28;20034;-72
2022/05/27 01:04:53;;;;;;;10.57;8.13;;;17.10;99.90;;;;;;5023261;28;20041;-71
2022/05/27 01:07:20;;;;;;;11.50;8.68;;;17.30;99.90;;;;;;5013869;28;20073;-71
2022/05/27 01:09:50;;;;;;;13.25;9.05;;;17.20;99.90;;;;;;5019579;28;20034;-71
2022/05/27 01:12:36;;;;;;;14.25;9.13;;;17.30;99.90;;;;;;5027441;28;20029;-73
2022/05/27 01:15:24;;;;;;;12.45;8.82;;;17.40;99.90;;;;;;5029830;28;20727;-72
2022/05/27 01:18:15;;;;;;;14.32;9.73;;;17.30;99.90;;;;;;5034514;28;20026;-72
2022/05/27 01:20:58;;;;;;;16.05;10.52;;;17.20;99.90;;;;;;5031752;28;20271;-71
2022/05/27 01:23:44;;;;;;;16.45;10.48;;;17.30;99.90;;;;;;5032119;28;20034;-73
2022/05/27 01:26:35;;;;;;;17.48;9.88;;;17.40;99.90;;;;;;5030757;28;20032;-72
2022/05/27 01:29:34;;;;;;;13.48;10.23;;;17.50;99.90;;;;;;5036067;28;20037;-72
2022/05/27 01:32:11;;;;;;;15.45;9.20;;;17.60;99.90;;;;;;5039202;28;20037;-73
2022/05/27 01:35:09;;;;;;;14.00;9.38;;;17.90;99.90;;;;;;5039704;28;20160;-72
2022/05/27 01:37:50;;;;;;;11.98;8.35;;;18.00;99.90;;;;;;5037277;28;20076;-72
2022/05/27 01:40:30;;;;;;;16.27;8.52;;;18.20;99.90;;;;;;5032134;28;20105;-72
2022/05/27 01:43:20;;;;;;;10.60;6.43;;;18.40;99.90;;;;;;5039403;28;20082;-72
2022/05/27 01:46:07;;;;;;;10.02;7.30;;;18.40;99.90;;;;;;5031253;28;20048;-72
2022/05/27 01:48:52;;;;;;;11.07;6.60;;;18.50;99.90;;;;;;5036535;28;20034;-69
2022/05/27 01:51:28;;;;;;;15.23;6.80;;;18.80;99.90;;;;;;5031373;28;20052;-69
2022/05/27 01:54:05;;;;;;;11.38;6.18;;;18.60;99.90;;;;;;5029096;28;21924;-69
2022/05/27 01:56:42;;;;;;;11.90;5.45;;;18.70;99.90;;;;;;5030749;28;20069;-70
2022/05/27 01:59:15;;;;;;;10.80;5.93;;;18.70;99.90;;;;;;5025541;28;20037;-68
2022/05/27 02:01:53;;;;;;;13.82;6.57;;;19.40;99.90;;;;;;5027544;28;20049;-69
2022/05/27 02:04:36;;;;;;;11.50;5.00;;;19.60;99.90;;;;;;5021027;28;20041;-68
2022/05/27 02:07:16;;;;;;;10.90;6.33;;;19.90;99.90;;;;;;5015511;28;20490;-68
2022/05/27 02:09:48;;;;;;;10.38;5.63;;;20.40;99.90;;;;;;5020748;28;20029;-69
2022/05/27 02:12:33;;;;;;;8.82;5.43;;;21.30;99.90;;;;;;5019965;28;20030;-68
2022/05/27 02:15:08;;;;;;;12.82;5.72;;;21.90;99.90;;;;;;5014982;28;20037;-69
2022/05/27 02:17:58;;;;;;;8.50;4.82;;;22.40;99.90;;;;;;5022405;28;20021;-69
2022/05/27 02:20:31;;;;;;;9.52;5.20;;;21.50;99.90;;;;;;5021343;28;20108;-69
2022/05/27 02:23:24;;;;;;;7.63;5.27;;;21.70;99.90;;;;;;5021111;28;20034;-70
2022/05/27 02:25:54;;;;;;;10.25;5.40;;;22.00;99.90;;;;;;5021476;28;20140;-68
2022/05/27 02:28:34;;;;;;;8.95;4.95;;;22.50;99.90;;;;;;5031475;28;20029;-68
2022/05/27 02:31:11;;;;;;;10.25;5.10;;;21.80;99.90;;;;;;5018747;28;20072;-69
2022/05/27 02:36:41;;;;;;;10.35;4.07;;;22.00;99.90;;;;;;5022006;28;20401;-70
2022/05/27 02:39:12;;;;;;;6.28;3.58;;;21.80;99.90;;;;;;5024605;28;20026;-69
2022/05/27 02:42:02;;;;;;;4.88;3.58;;;22.40;99.90;;;;;;5017297;28;20028;-70
2022/05/27 02:44:44;;;;;;;8.98;4.93;;;23.40;99.90;;;;;;5029252;28;20041;-69
2022/05/27 02:47:53;;;;;;;6.80;4.25;;;23.80;99.90;;;;;;5013647;28;20434;-69
2022/05/27 02:50:29;;;;;;;7.50;4.40;;;22.20;99.90;;;;;;5019720;28;20021;-69
2022/05/27 02:53:02;;;;;;;8.60;3.78;;;21.60;99.90;;;;;;5031316;28;20053;-69
2022/05/27 02:55:57;;;;;;;7.78;4.07;;;22.60;99.90;;;;;;5029378;28;20037;-69
2022/05/27 02:58:24;;;;;;;6.55;3.83;;;23.00;99.90;;;;;;5024956;28;20057;-69
2022/05/27 03:00:52;;;;;;;8.93;4.22;;;22.80;99.90;;;;;;5021693;28;20048;-69
2022/05/27 03:03:19;;;;;;;6.10;4.00;;;23.80;99.90;;;;;;5031874;28;20478;-70
2022/05/27 03:06:03;;;;;;;7.80;3.65;;;23.00;99.90;;;;;;5028974;28;20419;-70
2022/05/27 03:09:07;;;;;;;8.07;3.92;;;22.10;99.90;;;;;;5014190;28;20092;-70
2022/05/27 03:11:37;;;;;;;7.68;3.58;;;21.90;99.90;;;;;;5029695;28;20040;-71
2022/05/27 03:14:13;;;;;;;10.13;4.15;;;21.80;99.90;;;;;;5031475;28;20029;-71
2022/05/27 03:16:52;;;;;;;5.30;3.05;;;22.50;99.90;;;;;;5017255;28;20021;-70
2022/05/27 03:19:44;;;;;;;4.95;2.75;;;23.20;99.90;;;;;;5033480;28;20018;-70
2022/05/27 03:22:18;;;;;;;6.88;2.95;;;23.50;99.90;;;;;;5015632;28;20084;-71
2022/05/27 03:24:58;;;;;;;6.00;3.30;;;22.90;99.90;;;;;;5029391;28;20021;-71
2022/05/27 03:27:40;;;;;;;6.50;3.20;;;22.50;99.90;;;;;;5035825;28;20022;-71
2022/05/27 03:30:10;;;;;;;6.18;3.10;;;22.50;99.90;;;;;;5033643;28;20017;-72
2022/05/27 03:32:56;;;;;;;11.75;3.75;;;22.30;99.90;;;;;;5024452;28;20030;-72
2022/05/27 03:35:40;;;;;;;10.32;3.60;;;22.10;99.90;;;;;;5022305;28;20057;-72
2022/05/27 03:38:21;;;;;;;5.75;2.88;;;22.00;99.90;;;;;;5021337;28;20371;-72
2022/05/27 03:40:57;;;;;;;4.80;3.05;;;22.80;99.90;;;;;;5025619;28;20398;-71
2022/05/27 03:43:27;;;;;;;11.45;2.50;;;22.60;99.90;;;;;;5016923;28;20021;-71
2022/05/27 03:45:58;;;;;;;6.65;2.90;;;23.00;99.90;;;;;;5020405;28;20018;-71
2022/05/27 03:48:28;;;;;;;7.43;2.53;;;22.40;99.90;;;;;;5020977;28;20204;-71
2022/05/27 03:51:11;;;;;;;5.57;2.35;;;22.40;99.90;;;;;;5021050;28;20033;-71
2022/05/27 03:56:40;;;;;;;5.78;1.83;;;22.50;99.90;;;;;;5018235;28;20542;-71
2022/05/27 03:59:12;;;;;;;5.18;1.40;;;22.00;99.90;;;;;;5024355;28;20363;-70
2022/05/27 04:01:44;;;;;;;6.22;1.67;;;21.90;99.90;;;;;;5020954;28;20022;-70
2022/05/27 04:04:15;;;;;;;8.02;1.58;;;21.40;99.90;;;;;;5026585;28;20034;-70
2022/05/27 04:06:43;;;;;;;7.13;1.33;;;21.40;99.90;;;;;;5024982;28;20021;-70
2022/05/27 04:09:10;;;;;;;5.57;0.88;;;21.40;99.90;;;;;;5023959;28;20033;-70
2022/05/27 04:11:38;;;;;;;5.88;1.00;;;21.60;99.90;;;;;;5017808;28;20474;-70
2022/05/27 04:14:06;;;;;;;5.93;1.42;;;21.50;99.90;;;;;;5021099;28;20029;-70
2022/05/27 04:16:34;;;;;;;6.25;1.45;;;21.40;99.90;;;;;;5023490;28;20033;-71
2022/05/27 04:19:01;;;;;;;4.78;1.10;;;20.90;99.90;;;;;;5021154;28;20033;-70
2022/05/27 04:21:29;;;;;;;5.18;0.93;;;20.50;99.90;;;;;;5026147;28;20076;-70
2022/05/27 04:23:57;;;;;;;6.93;0.93;;;20.40;99.90;;;;;;5024794;28;20060;-70
2022/05/27 04:26:24;;;;;;;5.35;1.10;;;20.50;99.90;;;;;;5025416;28;20037;-70
2022/05/27 04:28:52;;;;;;;5.88;1.02;;;20.40;99.90;;;;;;5022009;28;20030;-71
2022/05/27 04:31:19;;;;;;;1.85;0.65;;;20.50;99.90;;;;;;5023028;28;20030;-70
2022/05/27 04:33:48;;;;;;;5.15;1.10;;;20.30;99.90;;;;;;5025735;28;20021;-71
2022/05/27 04:36:15;;;;;;;7.05;1.40;;;20.40;99.90;;;;;;5021393;28;20025;-70
2022/05/27 04:38:43;;;;;;;7.38;0.70;;;20.20;99.90;;;;;;5019478;28;20025;-70
2022/05/27 04:41:10;;;;;;;5.53;0.90;;;20.20;99.90;;;;;;5019998;28;20040;-70
2022/05/27 04:43:37;;;;;;;6.43;1.33;;;20.20;99.90;;;;;;5018642;28;20029;-70
2022/05/27 04:46:05;;;;;;;7.53;0.95;;;20.00;99.90;;;;;;5021526;28;20036;-70
2022/05/27 04:48:32;;;;;;;8.10;1.23;;;20.10;99.90;;;;;;5022499;28;20034;-70
2022/05/27 04:51:00;;;;;;;22.38;8.85;;;20.00;99.90;;;;;;5015810;28;20033;-70
2022/05/27 04:53:27;;;;;;;4.82;0.90;;;19.90;99.90;;;;;;5018295;28;20463;-70
2022/05/27 04:55:54;;;;;;;4.10;0.98;;;19.80;99.90;;;;;;5016573;28;20083;-70
2022/05/27 04:58:22;;;;;;;9.30;1.40;;;19.80;99.90;;;;;;5019251;28;20033;-71
2022/05/27 05:00:49;;;;;;;7.72;1.50;;;19.80;99.90;;;;;;5018704;28;20041;-71
2022/05/27 05:03:17;;;;;;;6.43;1.33;;;19.80;99.90;;;;;;5028628;28;20420;-70
2022/05/27 05:05:45;;;;;;;7.38;1.27;;;19.80;99.90;;;;;;5022241;28;20040;-70
2022/05/27 05:08:33;;;;;;;4.72;1.05;;;19.70;99.90;;;;;;5021240;28;20060;-70
2022/05/27 05:11:05;;;;;;;10.32;1.40;;;19.70;99.90;;;;;;5015332;28;20447;-70
2022/05/27 05:13:35;;;;;;;6.45;1.05;;;19.70;99.90;;;;;;5018172;28;20017;-70
2022/05/27 05:16:04;;;;;;;6.65;1.00;;;19.70;99.90;;;;;;5017303;28;20033;-70
2022/05/27 05:18:31;;;;;;;6.05;1.30;;;19.60;99.90;;;;;;5019927;28;20033;-70
2022/05/27 05:20:59;;;;;;;3.75;0.98;;;19.60;99.90;;;;;;5024270;28;20025;-70
2022/05/27 05:23:26;;;;;;;6.00;1.00;;;19.60;99.90;;;;;;5029586;28;20036;-70
2022/05/27 05:25:53;;;;;;;5.10;1.02;;;19.50;99.90;;;;;;5029610;28;20033;-70
2022/05/27 05:28:21;;;;;;;3.95;0.60;;;19.50;99.90;;;;;;5022430;28;20119;-71
2022/05/27 05:30:49;;;;;;;4.45;0.65;;;19.40;99.90;;;;;;5018086;28;20453;-71
2022/05/27 05:33:16;;;;;;;3.50;0.57;;;19.30;99.90;;;;;;5028032;28;20025;-70
2022/05/27 05:35:43;;;;;;;2.58;0.60;;;19.30;99.90;;;;;;5021553;28;20025;-70
2022/05/27 05:38:10;;;;;;;3.70;0.50;;;19.30;99.90;;;;;;5027390;28;20026;-71
2022/05/27 05:40:39;;;;;;;5.30;0.55;;;19.10;99.90;;;;;;5021449;28;20026;-71
2022/05/27 05:43:08;;;;;;;5.25;0.85;;;19.10;99.90;;;;;;5016815;28;20393;-71
2022/05/27 05:45:35;;;;;;;10.43;1.73;;;19.10;99.90;;;;;;5025420;28;20048;-70
2022/05/27 05:48:03;;;;;;;6.70;0.65;;;19.10;99.90;;;;;;5032326;28;20033;-71
2022/05/27 05:50:31;;;;;;;4.63;0.40;;;19.00;99.90;;;;;;5022476;28;20029;-71
2022/05/27 05:52:58;;;;;;;6.20;1.05;;;19.00;99.90;;;;;;5031006;28;20076;-71
2022/05/27 05:55:26;;;;;;;3.13;0.60;;;19.00;99.90;;;;;;5031315;28;20520;-71
2022/05/27 05:57:53;;;;;;;10.57;1.10;;;19.00;99.90;;;;;;5025740;28;20054;-71
2022/05/27 06:00:25;;;;;;;6.10;0.52;;;18.90;99.90;;;;;;5013822;28;20029;-71
2022/05/27 06:02:52;;;;;;;5.80;0.98;;;18.90;99.90;;;;;;5016529;28;20025;-70
2022/05/27 06:05:20;;;;;;;3.47;0.80;;;18.90;99.90;;;;;;5020803;28;20034;-70
2022/05/27 06:07:48;;;;;;;6.18;0.55;;;18.80;99.90;;;;;;5016220;28;20148;-70
2022/05/27 06:10:17;;;;;;;3.25;0.70;;;18.80;99.90;;;;;;5017106;28;20041;-70
2022/05/27 06:12:45;;;;;;;7.78;0.80;;;18.70;99.90;;;;;;5020321;28;20091;-71
2022/05/27 06:15:14;;;;;;;2.63;0.57;;;18.70;99.90;;;;;;5018726;28;20022;-70
2022/05/27 06:17:41;;;;;;;3.70;0.55;;;18.70;99.90;;;;;;5018222;28;20519;-70
2022/05/27 06:20:09;;;;;;;5.55;0.85;;;18.70;99.90;;;;;;5022494;28;20033;-70
2022/05/27 06:22:36;;;;;;;4.43;0.70;;;18.60;99.90;;;;;;5022972;28;20133;-70
2022/05/27 06:25:04;;;;;;;12.80;1.13;;;18.60;99.90;;;;;;5026481;28;20022;-71
2022/05/27 06:27:33;;;;;;;4.85;0.60;;;18.50;99.90;;;;;;5014924;28;20052;-70
2022/05/27 06:35:32;;;;;;;3.35;0.60;;;18.50;99.90;;;;;;5019426;28;20036;-71
2022/05/27 06:37:59;;;;;;;3.55;0.38;;;18.40;99.90;;;;;;5024049;28;20056;-70
2022/05/27 06:40:26;;;;;;;5.93;0.90;;;18.40;99.90;;;;;;5029314;28;20087;-71
2022/05/27 06:42:54;;;;;;;5.05;0.60;;;18.40;99.90;;;;;;5018318;28;20048;-71
2022/05/27 06:45:21;;;;;;;3.75;0.90;;;18.30;99.90;;;;;;5020919;28;20518;-71
2022/05/27 06:47:48;;;;;;;2.10;0.75;;;18.20;99.90;;;;;;5019849;28;20436;-71
2022/05/27 06:50:16;;;;;;;4.95;0.90;;;18.20;99.90;;;;;;5018164;28;20033;-71
2022/05/27 06:52:43;;;;;;;5.78;0.75;;;18.10;99.90;;;;;;5028148;28;20103;-70
2022/05/27 06:55:15;;;;;;;2.42;0.70;;;18.10;99.90;;;;;;5030585;28;20034;-72
2022/05/27 06:57:43;;;;;;;5.82;0.50;;;18.00;99.90;;;;;;5016508;28;20104;-72
2022/05/27 07:00:12;;;;;;;4.78;0.70;;;18.00;99.90;;;;;;5022142;28;20044;-72
2022/05/27 07:02:39;;;;;;;3.80;0.73;;;18.00;99.90;;;;;;5040595;28;20021;-72
2022/05/27 07:05:07;;;;;;;4.10;0.68;;;17.90;99.90;;;;;;5030416;28;20048;-73
2022/05/27 07:07:34;;;;;;;4.72;0.50;;;17.90;99.90;;;;;;5024805;28;20459;-72
2022/05/27 07:10:01;;;;;;;3.72;0.75;;;17.90;99.90;;;;;;5017570;28;20385;-73
2022/05/27 07:12:29;;;;;;;10.88;0.98;;;17.90;99.90;;;;;;5015473;28;20026;-72
2022/05/27 07:14:56;;;;;;;4.07;0.75;;;17.80;99.90;;;;;;5021179;28;20022;-72
2022/05/27 07:17:23;;;;;;;4.28;0.95;;;17.80;99.90;;;;;;5029317;28;20037;-72
2022/05/27 07:19:51;;;;;;;3.95;1.00;;;17.80;99.90;;;;;;5032104;28;20048;-72
2022/05/27 07:22:18;;;;;;;5.10;0.77;;;17.80;99.90;;;;;;5029316;28;20072;-72
2022/05/27 07:24:45;;;;;;;4.57;0.70;;;17.70;99.90;;;;;;5028165;28;20087;-72
2022/05/27 07:27:13;;;;;;;7.30;0.88;;;17.70;99.90;;;;;;5035439;28;20039;-72
2022/05/27 07:29:40;;;;;;;4.68;0.88;;;17.70;99.90;;;;;;5023386;28;20031;-72
2022/05/27 07:32:07;;;;;;;6.97;1.25;;;17.60;99.90;;;;;;5026724;28;20040;-72
2022/05/27 07:34:34;;;;;;;6.03;0.95;;;17.60;99.90;;;;;;5034283;28;20456;-72
2022/05/27 07:37:02;;;;;;;5.03;1.35;;;17.60;99.90;;;;;;5022154;28;20485;-72
2022/05/27 07:39:29;;;;;;;6.05;2.13;;;17.60;99.90;;;;;;5022239;28;20041;-72
2022/05/27 07:41:56;;;;;;;7.47;2.28;;;17.60;99.90;;;;;;5030719;28;20083;-72
2022/05/27 07:44:24;;;;;;;8.70;1.60;;;17.60;99.90;;;;;;5025172;28;20022;-72
2022/05/27 07:46:54;;;;;;;7.00;2.03;;;17.50;99.90;;;;;;5035155;28;20337;-72
2022/05/27 07:49:22;;;;;;;7.47;1.80;;;17.60;99.90;;;;;;5018842;28;20022;-72
2022/05/27 07:51:49;;;;;;;8.52;2.25;;;17.60;99.90;;;;;;5032157;28;20053;-72
2022/05/27 07:54:18;;;;;;;8.38;1.25;;;17.50;99.90;;;;;;5033802;28;20033;-72
2022/05/27 07:56:45;;;;;;;6.78;2.00;;;17.50;99.90;;;;;;5033942;28;20120;-72
2022/05/27 07:59:12;;;;;;;6.50;1.55;;;17.50;99.90;;;;;;5029391;28;20083;-72
2022/05/27 08:01:40;;;;;;;7.15;1.88;;;17.50;99.90;;;;;;5029711;28;20025;-72
2022/05/27 08:04:08;;;;;;;8.13;1.95;;;17.40;99.90;;;;;;5028195;28;20576;-73
2022/05/27 08:06:35;;;;;;;7.90;2.03;;;17.40;99.90;;;;;;5020540;28;20526;-73
2022/05/27 08:09:02;;;;;;;10.10;2.08;;;17.40;99.90;;;;;;5021821;28;20037;-73
2022/05/27 08:11:30;;;;;;;8.43;2.05;;;17.40;99.90;;;;;;5017641;28;20482;-73
2022/05/27 08:13:58;;;;;;;10.23;2.30;;;17.40;99.90;;;;;;5016305;28;20026;-73
2022/05/27 08:16:26;;;;;;;6.43;2.05;;;17.40;99.90;;;;;;5016334;28;20033;-73
2022/05/27 08:18:53;;;;;;;4.28;1.88;;;17.30;99.90;;;;;;5020834;28;20643;-73
2022/05/27 08:21:20;;;;;;;9.23;1.75;;;17.30;99.90;;;;;;5029904;28;20021;-72
2022/05/27 08:23:48;;;;;;;6.70;1.73;;;17.30;99.90;;;;;;5033649;28;20032;-73
2022/05/27 08:26:15;;;;;;;8.52;1.63;;;17.20;99.90;;;;;;5033646;28;20021;-73
2022/05/27 08:28:44;;;;;;;10.52;1.45;;;17.20;99.90;;;;;;5023366;28;20037;-73
2022/05/27 08:31:13;;;;;;;7.93;1.80;;;17.20;99.90;;;;;;5022054;28;20078;-73
2022/05/27 08:39:13;;;;;;;4.78;2.20;;;17.20;99.90;;;;;;5014878;28;20422;-70
2022/05/27 08:41:46;;;;;;;10.23;2.10;;;17.10;99.90;;;;;;5015631;28;20021;-71
2022/05/27 08:44:19;;;;;;;6.85;1.55;;;17.10;99.90;;;;;;5026325;28;20029;-69
2022/05/27 08:46:59;;;;;;;5.00;2.17;;;17.10;99.90;;;;;;5016814;28;20034;-70
2022/05/27 08:49:41;;;;;;;6.93;2.35;;;17.20;99.90;;;;;;5025150;28;20018;-70
2022/05/27 08:52:29;;;;;;;6.93;2.88;;;17.10;99.90;;;;;;5014052;28;20278;-71
2022/05/27 09:01:38;;;;;;;10.07;3.83;;;17.00;99.90;;;;;;5017819;28;20041;-72
2022/05/27 09:04:18;;;;;;;12.43;3.92;;;17.00;99.90;;;;;;5028727;28;20021;-71
2022/05/27 09:06:50;;;;;;;12.27;3.80;;;17.00;99.90;;;;;;5016298;28;20068;-68
2022/05/27 09:09:22;;;;;;;10.80;4.22;;;17.00;99.90;;;;;;5015466;28;20025;-71
2022/05/27 09:12:10;;;;;;;10.50;4.03;;;17.00;99.90;;;;;;5020825;28;20029;-73
2022/05/27 09:14:42;;;;;;;12.43;4.47;;;16.90;99.90;;;;;;5021496;28;20022;-73
2022/05/27 09:17:21;;;;;;;14.27;5.05;;;16.90;99.90;;;;;;5034520;28;20367;-72
2022/05/27 09:19:51;;;;;;;17.35;5.85;;;16.80;99.90;;;;;;5025160;28;20028;-71
2022/05/27 09:22:27;;;;;;;17.17;6.60;;;16.80;99.90;;;;;;5023957;28;20030;-71
2022/05/27 09:25:22;;;;;;;15.98;6.85;;;16.80;99.90;;;;;;5026686;28;20026;-71
2022/05/27 09:28:14;;;;;;;18.80;5.28;;;16.90;99.90;;;;;;5016411;28;20033;-72
2022/05/27 09:30:42;;;;;;;8.52;2.97;;;16.90;99.90;;;;;;5019047;28;20044;-71
2022/05/27 09:33:26;;;;;;;9.20;3.33;;;16.90;99.90;;;;;;5026074;28;20025;-72
2022/05/27 09:36:02;;;;;;;12.30;3.45;;;17.00;99.90;;;;;;5016640;28;20030;-72
2022/05/27 09:38:34;;;;;;;11.43;3.22;;;16.90;99.90;;;;;;5035173;28;20474;-72
2022/05/27 09:41:10;;;;;;;8.82;3.28;;;17.00;99.90;;;;;;5026169;28;20021;-71
2022/05/27 09:43:52;;;;;;;10.02;2.58;;;17.00;99.90;;;;;;5031662;28;20037;-72
2022/05/27 09:46:31;;;;;;;12.43;3.15;;;17.00;99.90;;;;;;5028185;28;20037;-72
2022/05/27 09:48:58;;;;;;;8.10;2.30;;;17.10;99.90;;;;;;5019427;28;20040;-72
2022/05/27 09:51:32;;;;;;;8.98;3.28;;;17.00;99.90;;;;;;5023141;28;20057;-73
2022/05/27 09:54:43;;;;;;;4.90;2.37;;;17.00;99.90;;;;;;5032533;28;20049;-72
2022/05/27 09:57:16;;;;;;;9.10;3.90;;;17.00;99.90;;;;;;5012540;28;20301;-72
2022/05/27 09:59:53;;;;;;;12.63;4.88;;;16.90;99.90;;;;;;5018027;28;20018;-73
2022/05/27 10:02:22;;;;;;;12.50;4.57;;;16.80;99.90;;;;;;5034290;28;20562;-72
2022/05/27 10:05:15;;;;;;;8.15;4.25;;;16.80;99.90;;;;;;5025000;28;20048;-73
2022/05/27 10:07:45;;;;;;;10.65;4.72;;;16.70;99.90;;;;;;5028349;28;20021;-73
2022/05/27 10:10:34;;;;;;;9.80;4.10;;;16.70;99.90;;;;;;5023110;28;20025;-73
2022/05/27 10:13:28;;;;;;;13.18;4.25;;;16.70;99.90;;;;;;5032190;28;20030;-73
2022/05/27 10:16:03;;;;;;;;;;;16.60;99.90;;;;;;5023625;28;20029;-72
2022/05/27 10:18:30;;;;;;;11.63;4.60;;;16.60;99.90;;;;;;5031256;28;19913;-73
2022/05/27 10:21:05;;;;;;;14.00;4.25;;;16.60;99.90;;;;;;5019220;28;20053;-72
2022/05/27 10:23:47;;;;;;;10.57;4.10;;;16.60;99.90;;;;;;5020259;28;20421;-72
2022/05/27 10:26:24;;;;;;;9.63;3.55;;;16.60;99.90;;;;;;5022920;28;20092;-72
2022/05/27 10:29:13;;;;;;;10.85;3.88;;;16.50;99.90;;;;;;5020158;28;20026;-73
2022/05/27 10:31:55;;;;;;;9.45;3.47;;;16.50;99.90;;;;;;5025502;28;20048;-72
2022/05/27 10:34:46;;;;;;;10.07;3.88;;;16.50;99.90;;;;;;5031624;28;20470;-72
2022/05/27 10:37:49;;;;;;;10.90;3.53;;;16.40;99.90;;;;;;5015027;28;20117;-73
2022/05/27 10:40:31;;;;;;;9.57;3.75;;;16.40;99.90;;;;;;5026669;28;20041;-72
2022/05/27 10:43:08;;;;;;;8.75;3.30;;;16.40;99.90;;;;;;5035508;28;20029;-73
2022/05/27 10:45:47;;;;;;;8.45;3.28;;;16.40;99.90;;;;;;5028102;28;20026;-72
2022/05/27 10:48:26;;;;;;;10.23;3.25;;;16.40;99.90;;;;;;5020634;28;20553;-72
2022/05/27 10:51:02;;;;;;;10.02;2.92;;;16.40;99.90;;;;;;5024869;28;20053;-72
2022/05/27 10:53:43;;;;;;;10.13;2.50;;;16.40;99.90;;;;;;5016073;28;20410;-73
2022/05/27 10:56:22;;;;;;;9.30;2.30;;;16.40;99.90;;;;;;5029599;28;20394;-71
2022/05/27 11:02:14;;;;;;;11.68;2.60;;;16.50;99.90;;;;;;5023973;28;20060;-73
2022/05/27 11:05:14;;;;;;;5.85;1.75;;;16.50;99.90;;;;;;5018212;28;20022;-72
2022/05/27 11:08:26;;;;;;;7.95;2.78;;;16.50;99.90;;;;;;5034866;28;20056;-72
2022/05/27 11:11:02;;;;;;;7.30;1.55;;;16.50;99.90;;;;;;5020836;28;20041;-72
2022/05/27 11:17:05;;;;;;;7.75;2.22;;;16.50;99.90;;;;;;5019247;28;20061;-72
2022/05/27 11:19:51;;;;;;;8.45;1.83;;;16.50;99.90;;;;;;5019403;28;20029;-72
2022/05/27 11:22:37;;;;;;;8.43;2.05;;;16.50;99.90;;;;;;5022437;28;20024;-73
2022/05/27 11:25:13;;;;;;;10.82;3.03;;;16.50;99.90;;;;;;5023604;28;20501;-73
2022/05/27 11:27:48;;;;;;;5.68;1.67;;;16.50;99.90;;;;;;5016220;28;20022;-73
2022/05/27 11:30:18;;;;;;;8.10;1.70;;;16.50;99.90;;;;;;5027228;28;20029;-72
2022/05/27 11:33:09;;;;;;;12.90;2.15;;;16.50;99.90;;;;;;5034013;28;20101;-73
2022/05/27 11:36:09;;;;;;;3.17;1.27;;;16.50;99.90;;;;;;5022967;28;20053;-73
2022/05/27 11:39:08;;;;;;;8.15;1.58;;;16.60;99.90;;;;;;5032129;28;20410;-73
2022/05/27 11:42:24;;;;;;;9.43;1.92;;;16.60;99.90;;;;;;5017910;28;20022;-72
2022/05/27 11:45:06;;;;;;;5.82;1.65;;;16.60;99.90;;;;;;5025665;28;20024;-72
2022/05/27 11:47:51;;;;;;;6.93;1.42;;;16.50;99.90;;;;;;5033815;28;20776;-74
2022/05/27 11:50:49;;;;;;;7.93;2.03;;;16.50;99.90;;;;;;5026439;28;20038;-73
2022/05/27 11:53:26;;;;;;;5.85;1.45;;;16.50;99.90;;;;;;5017724;28;20057;-74
2022/05/27 11:56:18;;;;;;;4.35;1.40;;;16.50;99.90;;;;;;5033073;28;20025;-73
2022/05/27 11:59:10;;;;;;;9.77;1.90;;;16.40;99.90;;;;;;5035257;28;20175;-72
2022/05/27 12:01:39;;;;;;;6.22;2.15;;;16.40;99.90;;;;;;5018048;28;20061;-72
2022/05/27 12:04:18;;;;;;;7.28;1.52;;;16.40;99.90;;;;;;5019731;28;20021;-72
2022/05/27 12:06:51;;;;;;;10.52;2.13;;;16.40;99.90;;;;;;5023680;28;20030;-73
2022/05/27 12:09:36;;;;;;;4.83;1.80;;;16.40;99.90;;;;;;5025526;28;20379;-77
2022/05/27 12:12:07;;;;;;;7.00;1.83;;;16.40;99.90;;;;;;5019103;28;20267;-72
2022/05/27 12:14:53;;;;;;;9.95;2.85;;;16.40;99.90;;;;;;5029242;28;20034;-73
2022/05/27 12:17:22;;;;;;;8.57;3.15;;;16.40;99.90;;;;;;5033484;28;20053;-73
2022/05/27 12:20:01;;;;;;;7.57;2.65;;;16.40;99.90;;;;;;5023873;28;20951;-73
2022/05/27 12:22:35;;;;;;;8.27;2.10;;;16.30;99.90;;;;;;5021526;28;20379;-72
2022/05/27 12:25:22;;;;;;;9.35;2.75;;;16.30;99.90;;;;;;5023066;28;20033;-72
2022/05/27 12:27:50;;;;;;;8.50;2.53;;;16.20;99.90;;;;;;5027218;28;20041;-71
2022/05/27 12:30:23;;;;;;;8.90;3.42;;;16.10;99.90;;;;;;5022697;28;20026;-71
2022/05/27 12:32:51;;;;;;;6.72;2.85;;;16.10;99.90;;;;;;5021917;28;20022;-71
2022/05/27 12:35:34;;;;;;;13.50;3.10;;;16.00;99.90;;;;;;5019753;28;20064;-71
2022/05/27 12:38:15;;;;;;;16.65;3.15;;;16.00;99.90;;;;;;5024835;28;20101;-71
2022/05/27 12:41:35;;;;;;;12.73;3.00;;;16.00;99.90;;;;;;5021190;28;20032;-71
2022/05/27 12:44:25;;;;;;;11.27;2.95;;;16.00;99.90;;;;;;5023514;28;20030;-72
2022/05/27 12:46:59;;;;;;;8.63;2.92;;;15.90;99.90;;;;;;5026171;28;20033;-70
2022/05/27 12:49:45;;;;;;;9.48;3.00;;;15.80;99.90;;;;;;5025745;28;20113;-71
2022/05/27 12:52:30;;;;;;;11.30;3.00;;;15.80;99.90;;;;;;5015732;28;20048;-72
2022/05/27 12:54:57;;;;;;;12.68;3.10;;;15.80;99.90;;;;;;5016829;28;20026;-71
2022/05/27 13:03:42;;;;;;;10.65;3.10;;;15.60;99.90;;;;;;5021346;28;20036;-71
2022/05/27 13:06:20;;;;;;;17.75;3.28;;;15.60;99.90;;;;;;5021387;28;20052;-71
2022/05/27 13:09:09;;;;;;;9.95;2.80;;;15.60;99.90;;;;;;5018621;28;20030;-71
2022/05/27 13:11:39;;;;;;;13.45;3.20;;;15.60;99.90;;;;;;5023127;28;20366;-71
2022/05/27 13:14:06;;;;;;;11.50;3.40;;;15.60;99.90;;;;;;5019595;28;20109;-71
2022/05/27 13:16:36;;;;;;;8.90;3.83;;;15.60;99.90;;;;;;5019650;28;20039;-71
2022/05/27 13:19:08;;;;;;;11.15;3.00;;;15.60;99.90;;;;;;5015910;28;20046;-71
2022/05/27 13:21:41;;;;;;;10.50;3.25;;;15.50;99.90;;;;;;5021366;28;20021;-71
2022/05/27 13:24:26;;;;;;;12.20;4.07;;;15.40;99.90;;;;;;5021119;28;20028;-72
2022/05/27 13:26:59;;;;;;;10.98;3.53;;;15.40;99.90;;;;;;5027256;28;20037;-71
2022/05/27 13:29:39;;;;;;;6.75;3.10;;;15.40;99.90;;;;;;5026586;28;20108;-72
2022/05/27 13:32:19;;;;;;;11.73;3.53;;;15.30;99.90;;;;;;5027010;28;20025;-71
2022/05/27 13:35:00;;;;;;;9.48;3.88;;;15.30;99.90;;;;;;5018336;28;20036;-70
2022/05/27 13:37:35;;;;;;;9.88;3.85;;;15.30;99.90;;;;;;5021389;28;20041;-70
2022/05/27 13:40:39;;;;;;;8.68;3.67;;;15.40;99.90;;;;;;5019260;28;20034;-71
2022/05/27 13:43:17;;;;;;;15.38;4.13;;;15.30;99.90;;;;;;5019570;28;20029;-70
2022/05/27 13:46:00;;;;;;;14.82;4.72;;;15.30;99.90;;;;;;5014800;28;20057;-71
2022/05/27 13:48:44;;;;;;;9.27;3.95;;;15.30;99.90;;;;;;5020611;28;20478;-71
2022/05/27 13:51:12;;;;;;;9.70;4.30;;;15.20;99.90;;;;;;5019017;28;20108;-71
2022/05/27 13:53:41;;;;;;;8.13;3.95;;;15.20;99.90;;;;;;5020268;28;20103;-71
2022/05/27 13:56:39;;;;;;;12.63;4.65;;;15.10;99.90;;;;;;5017766;28;20446;-72
2022/05/27 13:59:19;;;;;;;11.10;4.40;;;15.10;99.90;;;;;;5020001;28;20038;-71
2022/05/27 14:01:56;;;;;;;12.27;4.55;;;15.10;99.90;;;;;;5022341;28;20426;-70